createdAt,value
2019-05-23T04:36:19.919Z,12.04
2019-05-23T04:37:59.306Z,12.79
2019-05-23T04:39:38.823Z,12.89
2019-05-23T04:41:18.326Z,12.93
2019-05-23T04:42:57.838Z,12.96
2019-05-23T04:44:37.314Z,13
2019-05-23T04:46:21.622Z,13.02
2019-05-23T04:48:01.073Z,13.01
2019-05-23T04:49:40.488Z,13.02
2019-05-23T04:51:19.891Z,13.03
2019-05-23T04:52:59.367Z,13.06
2019-05-23T04:54:39.614Z,13.12
2019-05-23T04:56:22.812Z,13.16
2019-05-23T04:58:04.388Z,13.2
2019-05-23T04:59:47.175Z,13.86
2019-05-23T05:01:26.969Z,13.31
2019-05-23T05:03:06.764Z,13.38
2019-05-23T05:04:46.311Z,13.43
2019-05-23T05:06:25.895Z,13.48
2019-05-23T05:08:05.516Z,13.58
2019-05-23T05:09:45.456Z,13.63
2019-05-23T05:11:24.884Z,13.65
2019-05-23T05:13:08.600Z,13.68
2019-05-23T05:14:48.109Z,13.74
2019-05-23T05:16:27.486Z,13.79
2019-05-23T05:18:07.415Z,13.83
2019-05-23T05:19:46.945Z,13.9
2019-05-23T05:21:26.435Z,13.95
2019-05-23T05:23:06.141Z,14.04
2019-05-23T05:24:45.555Z,14.12
2019-05-23T05:26:25.205Z,14.2
2019-05-23T05:28:05.458Z,14.3
2019-05-23T05:29:44.939Z,14.39
2019-05-23T05:31:23.859Z,14.49
2019-05-23T05:33:03.487Z,14.54
2019-05-23T05:34:43.082Z,14.57
2019-05-23T05:36:22.593Z,14.63
2019-05-23T05:38:02.010Z,14.67
2019-05-23T05:39:41.804Z,14.72
2019-05-23T05:41:21.472Z,14.8
2019-05-23T05:43:00.935Z,14.87
2019-05-23T05:44:40.489Z,14.92
2019-05-23T05:46:20.052Z,15
2019-05-23T05:47:59.563Z,15.11
2019-05-23T05:49:42.179Z,15.21
2019-05-23T05:51:21.809Z,15.27
2019-05-23T05:53:01.259Z,15.36
2019-05-23T05:54:40.765Z,15.39
2019-05-23T05:56:20.229Z,15.51
2019-05-23T05:57:59.616Z,15.61
2019-05-23T05:59:39.055Z,15.75
2019-05-23T06:01:32.650Z,15.87
2019-05-23T06:03:12.738Z,15.97
2019-05-23T06:04:52.302Z,16.03
2019-05-23T06:06:31.783Z,16.12
2019-05-23T06:08:11.275Z,16.22
2019-05-23T06:09:50.774Z,16.36
2019-05-23T06:11:30.233Z,16.46
2019-05-23T06:13:09.737Z,16.56
2019-05-23T06:14:49.122Z,16.63
2019-05-23T06:16:28.633Z,16.64
2019-05-23T06:18:08.173Z,16.65
2019-05-23T06:19:47.650Z,16.7
2019-05-23T06:21:27.186Z,16.7
2019-05-23T06:23:06.743Z,16.74
2019-05-23T06:24:51.435Z,16.8
2019-05-23T06:26:35.495Z,16.95
2019-05-23T06:28:14.982Z,17.06
2019-05-23T06:29:54.451Z,17.17
2019-05-23T06:31:33.347Z,17.31
2019-05-23T06:33:22.309Z,17.44
2019-05-23T06:35:02.557Z,17.5
2019-05-23T06:36:42.020Z,17.55
2019-05-23T06:38:21.400Z,17.54
2019-05-23T06:40:00.846Z,16.28
2019-05-23T06:41:40.445Z,17.44
2019-05-23T06:43:20.065Z,17.53
2019-05-23T06:44:59.653Z,17.56
2019-05-23T06:46:39.279Z,17.64
2019-05-23T06:48:18.812Z,17.75
2019-05-23T06:49:58.261Z,17.82
2019-05-23T06:51:37.941Z,17.87
2019-05-23T06:53:17.406Z,18.04
2019-05-23T06:54:59.673Z,18.18
2019-05-23T06:56:39.614Z,17.01
2019-05-23T06:58:19.519Z,18.22
2019-05-23T07:00:00.869Z,18.37
2019-05-23T07:01:40.490Z,17.26
2019-05-23T07:03:20.344Z,18.49
2019-05-23T07:05:26.613Z,17.36
2019-05-23T07:07:12.917Z,19.11
2019-05-23T07:08:52.852Z,18.66
2019-05-23T07:10:32.591Z,17.51
2019-05-23T07:12:12.223Z,18.77
2019-05-23T07:13:51.723Z,17.72
2019-05-23T07:15:31.350Z,18.96
2019-05-23T07:17:14.530Z,17.88
2019-05-23T07:18:54.345Z,19.06
2019-05-23T07:20:34.015Z,17.99
2019-05-23T07:22:13.772Z,19.18
2019-05-23T07:23:56.986Z,18.12
2019-05-23T07:25:36.545Z,19.3
2019-05-23T07:27:16.255Z,18.2
2019-05-23T07:28:55.885Z,19.4
2019-05-23T07:30:35.571Z,18.29
2019-05-23T07:32:15.367Z,19.5
2019-05-23T07:34:01.503Z,18.37
2019-05-23T07:35:42.324Z,19.58
2019-05-23T07:37:22.278Z,18.51
2019-05-23T07:39:02.238Z,19.72
2019-05-23T07:40:54.280Z,18.65
2019-05-23T07:42:34.321Z,19.87
2019-05-23T07:44:14.328Z,18.73
2019-05-23T07:45:54.591Z,18.65
2019-05-23T07:47:34.574Z,18.64
2019-05-23T07:49:18.221Z,19.91
2019-05-23T07:50:58.211Z,18.87
2019-05-23T07:52:38.242Z,18.84
2019-05-23T07:54:17.965Z,20.1
2019-05-23T07:55:57.380Z,19.02
2019-05-23T07:57:37.215Z,19
2019-05-23T07:59:16.855Z,19
2019-05-23T08:00:56.554Z,19.06
2019-05-23T08:02:36.819Z,19.11
2019-05-23T08:04:21.615Z,19.16
2019-05-23T08:06:02.147Z,19.23
2019-05-23T08:07:42.055Z,19.26
2019-05-23T08:09:22.979Z,19.27
2019-05-23T08:11:02.644Z,19.33
2019-05-23T08:12:42.333Z,19.38
2019-05-23T08:14:22.087Z,19.42
2019-05-23T08:16:01.794Z,19.48
2019-05-23T08:17:41.701Z,19.59
2019-05-23T08:19:21.416Z,19.75
2019-05-23T08:21:01.162Z,19.88
2019-05-23T08:22:41.127Z,19.91
2019-05-23T08:24:20.721Z,20
2019-05-23T08:26:00.281Z,20.1
2019-05-23T08:27:39.989Z,20.1
2019-05-23T08:29:25.776Z,20.17
2019-05-23T08:31:05.968Z,20.29
2019-05-23T08:32:45.596Z,20.37
2019-05-23T08:34:40.388Z,20.54
2019-05-23T08:36:21.305Z,20.59
2019-05-23T08:38:01.086Z,20.65
2019-05-23T08:39:40.826Z,20.69
2019-05-23T08:41:20.365Z,20.74
2019-05-23T08:43:00.152Z,20.66
2019-05-23T08:44:39.664Z,20.59
2019-05-23T08:46:19.463Z,20.65
2019-05-23T08:47:59.097Z,20.95
2019-05-23T08:49:38.732Z,21.09
2019-05-23T08:51:18.587Z,21.13
2019-05-23T08:52:58.188Z,21.16
2019-05-23T08:54:37.699Z,21.18
2019-05-23T08:56:18.651Z,21.14
2019-05-23T08:57:59.167Z,21.17
2019-05-23T08:59:38.667Z,21.29
2019-05-23T09:01:18.178Z,21.22
2019-05-23T09:02:58.612Z,21.1
2019-05-23T09:04:38.598Z,21.01
2019-05-23T09:06:41.556Z,20.95
2019-05-23T09:08:20.992Z,20.92
2019-05-23T09:10:00.117Z,20.92
2019-05-23T09:11:39.612Z,20.92
2019-05-23T09:13:19.151Z,20.94
2019-05-23T09:14:58.736Z,20.94
2019-05-23T09:16:38.029Z,20.95
2019-05-23T09:18:17.718Z,20.89
2019-05-23T09:19:57.103Z,20.87
2019-05-23T09:21:36.818Z,20.76
2019-05-23T09:23:16.378Z,20.71
2019-05-23T09:24:55.764Z,20.74
2019-05-23T09:26:35.322Z,20.74
2019-05-23T09:28:14.791Z,20.74
2019-05-23T09:29:54.313Z,20.64
2019-05-23T09:31:33.877Z,20.66
2019-05-23T09:33:13.365Z,20.7
2019-05-23T09:34:52.985Z,20.76
2019-05-23T09:36:32.497Z,20.74
2019-05-23T09:38:11.969Z,20.74
2019-05-23T09:39:51.519Z,20.7
2019-05-23T09:41:31.074Z,20.7
2019-05-23T09:43:10.586Z,20.68
2019-05-23T09:44:50.357Z,20.75
2019-05-23T09:46:29.894Z,21.14
2019-05-23T09:48:09.350Z,21.32
2019-05-23T09:49:54.085Z,21.36
2019-05-23T09:51:33.940Z,21.45
2019-05-23T09:53:13.409Z,21.48
2019-05-23T09:54:52.896Z,21.3
2019-05-23T09:56:32.514Z,21.08
2019-05-23T09:58:11.991Z,20.98
2019-05-23T09:59:51.560Z,20.84
2019-05-23T10:01:35.017Z,20.76
2019-05-23T10:03:25.768Z,20.66
2019-05-23T10:05:05.294Z,20.55
2019-05-23T10:06:47.247Z,20.48
2019-05-23T10:08:26.678Z,20.46
2019-05-23T10:10:06.291Z,20.59
2019-05-23T10:11:45.920Z,20.73
2019-05-23T10:13:38.182Z,20.81
2019-05-23T10:15:26.349Z,21
2019-05-23T10:17:05.987Z,21.52
2019-05-23T10:18:45.372Z,21.85
2019-05-23T10:20:24.785Z,22.17
2019-05-23T10:22:04.362Z,22.63
2019-05-23T10:23:43.872Z,23.18
2019-05-23T10:25:23.413Z,23.71
2019-05-23T10:27:02.847Z,24.19
2019-05-23T10:28:42.487Z,24.5
2019-05-23T10:30:21.948Z,24.84
2019-05-23T10:32:01.423Z,25.1
2019-05-23T10:33:41.015Z,25.28
2019-05-23T10:35:20.468Z,25.35
2019-05-23T10:36:59.880Z,25.31
2019-05-23T10:38:39.452Z,25.56
2019-05-23T10:40:19.013Z,25.72
2019-05-23T10:41:58.418Z,25.31
2019-05-23T10:43:38.016Z,24.92
2019-05-23T10:45:17.594Z,24.64
2019-05-23T10:46:57.108Z,24.41
2019-05-23T10:48:36.591Z,24.16
2019-05-23T10:50:16.055Z,24.33
2019-05-23T10:51:55.505Z,24.84
2019-05-23T10:53:35.014Z,25.01
2019-05-23T10:55:14.784Z,24.78
2019-05-23T10:56:54.333Z,24.53
2019-05-23T10:58:33.908Z,24.23
2019-05-23T11:00:13.934Z,24.12
2019-05-23T11:01:53.401Z,24.04
2019-05-23T11:03:32.927Z,23.87
2019-05-23T11:05:13.992Z,23.69
2019-05-23T11:07:00.112Z,23.42
2019-05-23T11:08:39.649Z,23.23
2019-05-23T11:10:19.240Z,23.1
2019-05-23T11:11:58.779Z,22.99
2019-05-23T11:13:38.375Z,22.97
2019-05-23T11:15:17.948Z,22.97
2019-05-23T11:16:57.520Z,23.06
2019-05-23T11:18:37.047Z,23.13
2019-05-23T11:20:16.686Z,23.2
2019-05-23T11:21:56.223Z,23.21
2019-05-23T11:23:35.918Z,23.44
2019-05-23T11:25:15.375Z,23.82
2019-05-23T11:26:56.062Z,24.24
2019-05-23T11:28:35.608Z,24.16
2019-05-23T11:30:15.051Z,24.25
2019-05-23T11:31:54.628Z,24.5
2019-05-23T11:33:34.094Z,24.46
2019-05-23T11:35:13.561Z,24.31
2019-05-23T11:36:53.085Z,24.17
2019-05-23T11:38:32.518Z,24.56
2019-05-23T11:40:11.907Z,25.02
2019-05-23T11:41:51.552Z,25.48
2019-05-23T11:43:31.045Z,25.52
2019-05-23T11:45:10.560Z,25.32
2019-05-23T11:46:50.074Z,24.99
2019-05-23T11:48:29.709Z,24.56
2019-05-23T11:50:09.381Z,24.35
2019-05-23T11:51:50.488Z,24.16
2019-05-23T11:53:30.201Z,24.1
2019-05-23T11:55:09.806Z,24.1
2019-05-23T11:56:50.008Z,24.19
2019-05-23T11:58:32.319Z,24.66
2019-05-23T12:00:12.281Z,24.87
2019-05-23T12:01:52.042Z,24.79
2019-05-23T12:03:31.811Z,25.06
2019-05-23T12:05:11.487Z,25.36
2019-05-23T12:06:55.039Z,25.86
2019-05-23T12:08:35.779Z,26.25
2019-05-23T12:10:15.779Z,26.71
2019-05-23T12:11:55.804Z,26.63
2019-05-23T12:13:35.290Z,26.65
2019-05-23T12:15:15.187Z,26.95
2019-05-23T12:16:54.875Z,27.23
2019-05-23T12:18:35.897Z,27.61
2019-05-23T12:20:15.984Z,27.66
2019-05-23T12:21:55.792Z,27.45
2019-05-23T12:23:35.370Z,27.36
2019-05-23T12:25:22.320Z,27.2
2019-05-23T12:27:02.762Z,27.26
2019-05-23T12:28:42.817Z,27.04
2019-05-23T12:30:22.533Z,27.09
2019-05-23T12:32:02.303Z,27.24
2019-05-23T12:33:41.996Z,27.23
2019-05-23T12:35:23.403Z,27.29
2019-05-23T12:37:17.837Z,27.57
2019-05-23T12:38:59.406Z,27.35
2019-05-23T12:40:39.147Z,27.04
2019-05-23T12:42:19.223Z,26.67
2019-05-23T12:43:59.208Z,26.31
2019-05-23T12:45:39.037Z,26.05
2019-05-23T12:47:24.625Z,25.9
2019-05-23T12:49:04.285Z,25.79
2019-05-23T12:50:43.854Z,25.71
2019-05-23T12:52:28.564Z,25.65
2019-05-23T12:54:08.310Z,25.62
2019-05-23T12:55:48.428Z,25.79
2019-05-23T12:57:28.023Z,25.72
2019-05-23T12:59:07.827Z,25.5
2019-05-23T13:00:47.502Z,25.44
2019-05-23T13:02:27.602Z,25.72
2019-05-23T13:04:10.050Z,25.73
2019-05-23T13:05:49.742Z,25.82
2019-05-23T13:07:36.069Z,26.07
2019-05-23T13:09:16.512Z,26.62
2019-05-23T13:10:56.342Z,27.08
2019-05-23T13:12:36.430Z,27.53
2019-05-23T13:14:16.258Z,27.98
2019-05-23T13:15:55.924Z,28.27
2019-05-23T13:17:35.567Z,28.06
2019-05-23T13:19:15.304Z,27.37
2019-05-23T13:20:58.593Z,27.26
2019-05-23T13:22:39.329Z,27.43
2019-05-23T13:24:19.150Z,28.05
2019-05-23T13:25:58.839Z,28.43
2019-05-23T13:27:38.566Z,29.01
2019-05-23T13:29:18.593Z,29.63
2019-05-23T13:31:02.266Z,29.95
2019-05-23T13:32:41.830Z,29.41
2019-05-23T13:34:21.389Z,29.09
2019-05-23T13:36:01.232Z,28.76
2019-05-23T13:37:52.742Z,28.91
2019-05-23T13:39:33.492Z,28.91
2019-05-23T13:41:13.173Z,29.14
2019-05-23T13:42:52.841Z,29.05
2019-05-23T13:44:35.337Z,28.95
2019-05-23T13:46:15.405Z,29.19
2019-05-23T13:47:54.928Z,29.68
2019-05-23T13:49:34.370Z,30.08
2019-05-23T13:51:13.916Z,30.69
2019-05-23T13:52:53.438Z,30.93
2019-05-23T13:54:36.084Z,30.69
2019-05-23T13:56:16.164Z,30
2019-05-23T13:57:56.007Z,29.32
2019-05-23T13:59:35.610Z,28.83
2019-05-23T14:01:15.118Z,28.32
2019-05-23T14:02:54.831Z,27.83
2019-05-23T14:04:36.631Z,28.11
2019-05-23T14:06:16.261Z,28.02
2019-05-23T14:08:10.359Z,27.74
2019-05-23T14:10:03.126Z,27.52
2019-05-23T14:11:42.778Z,28.09
2019-05-23T14:13:22.787Z,28.85
2019-05-23T14:15:04.293Z,29.64
2019-05-23T14:16:43.775Z,29.89
2019-05-23T14:18:23.285Z,30.37
2019-05-23T14:20:02.782Z,30.44
2019-05-23T14:21:42.638Z,30.77
2019-05-23T14:23:22.144Z,30.68
2019-05-23T14:25:01.800Z,30.47
2019-05-23T14:26:44.630Z,30.54
2019-05-23T14:28:24.072Z,30.96
2019-05-23T14:30:10.143Z,31.13
2019-05-23T14:31:59.973Z,30.96
2019-05-23T14:33:39.431Z,30.78
2019-05-23T14:35:18.808Z,30.71
2019-05-23T14:36:58.397Z,30.75
2019-05-23T14:38:37.913Z,31.14
2019-05-23T14:40:17.363Z,31.28
2019-05-23T14:41:56.855Z,31.5
2019-05-23T14:43:36.388Z,31.63
2019-05-23T14:45:15.869Z,31.46
2019-05-23T14:46:55.339Z,31.49
2019-05-23T14:48:34.934Z,31.69
2019-05-23T14:50:14.441Z,31.74
2019-05-23T14:51:53.963Z,31.68
2019-05-23T14:53:33.469Z,31.46
2019-05-23T14:55:12.900Z,30.96
2019-05-23T14:56:52.327Z,30.92
2019-05-23T14:58:31.842Z,30.94
2019-05-23T15:00:11.381Z,31.02
2019-05-23T15:01:50.914Z,31.1
2019-05-23T15:03:30.443Z,31.36
2019-05-23T15:05:13.593Z,31.54
2019-05-23T15:06:53.025Z,31.11
2019-05-23T15:08:49.375Z,31.05
2019-05-23T15:10:30.396Z,31.05
2019-05-23T15:12:09.271Z,30.53
2019-05-23T15:13:48.756Z,30.48
2019-05-23T15:15:28.423Z,30.28
2019-05-23T15:17:07.990Z,30.25
2019-05-23T15:18:47.501Z,30.07
2019-05-23T15:20:27.060Z,30.33
2019-05-23T15:22:06.552Z,29.96
2019-05-23T15:23:46.163Z,29.39
2019-05-23T15:25:25.713Z,28.91
2019-05-23T15:27:05.254Z,28.43
2019-05-23T15:28:44.696Z,28.17
2019-05-23T15:30:24.293Z,28.28
2019-05-23T15:32:03.780Z,28.5
2019-05-23T15:33:43.312Z,28.73
2019-05-23T15:35:22.997Z,28.61
2019-05-23T15:37:02.722Z,28.92
2019-05-23T15:38:42.182Z,29.22
2019-05-23T15:40:21.846Z,29.43
2019-05-23T15:42:01.284Z,29.62
2019-05-23T15:43:40.883Z,29.7
2019-05-23T15:45:20.629Z,29.83
2019-05-23T15:47:00.159Z,29.97
2019-05-23T15:48:39.712Z,30.12
2019-05-23T15:50:19.267Z,30.12
2019-05-23T15:51:58.804Z,30.18
2019-05-23T15:53:38.243Z,30.16
2019-05-23T15:55:17.807Z,30.18
2019-05-23T15:56:57.362Z,30.1
2019-05-23T15:58:36.815Z,30.25
2019-05-23T16:00:16.312Z,30.15
2019-05-23T16:01:55.846Z,29.93
2019-05-23T16:03:35.470Z,29.95
2019-05-23T16:05:14.956Z,30.07
2019-05-23T16:06:54.489Z,30.12
2019-05-23T16:08:34.070Z,30.17
2019-05-23T16:10:13.657Z,30.11
2019-05-23T16:11:53.101Z,29.82
2019-05-23T16:13:32.690Z,29.38
2019-05-23T16:15:12.192Z,29.38
2019-05-23T16:16:55.492Z,29.36
2019-05-23T16:18:35.961Z,29.33
2019-05-23T16:20:15.431Z,29.52
2019-05-23T16:21:54.884Z,29.52
2019-05-23T16:23:34.412Z,29.42
2019-05-23T16:25:14.044Z,29.22
2019-05-23T16:26:53.569Z,28.94
2019-05-23T16:28:33.160Z,28.85
2019-05-23T16:30:12.641Z,28.7
2019-05-23T16:31:52.129Z,28.63
2019-05-23T16:33:31.576Z,28.68
2019-05-23T16:35:11.235Z,28.7
2019-05-23T16:36:50.661Z,28.61
2019-05-23T16:38:30.154Z,28.45
2019-05-23T16:40:09.663Z,28.47
2019-05-23T16:41:49.267Z,28.34
2019-05-23T16:43:28.713Z,28.12
2019-05-23T16:45:08.333Z,27.82
2019-05-23T16:46:48.947Z,27.61
2019-05-23T16:48:28.494Z,27.2
2019-05-23T16:50:08.131Z,26.81
2019-05-23T16:51:47.596Z,26.51
2019-05-23T16:53:26.988Z,26.23
2019-05-23T16:55:10.683Z,25.95
2019-05-23T16:56:50.250Z,25.65
2019-05-23T16:58:29.691Z,25.37
2019-05-23T17:00:09.119Z,25.16
2019-05-23T17:01:56.237Z,24.95
2019-05-23T17:03:44.673Z,24.74
2019-05-23T17:05:25.626Z,24.6
2019-05-23T17:07:05.119Z,24.45
2019-05-23T17:08:44.525Z,24.32
2019-05-23T17:10:23.888Z,24.27
2019-05-23T17:12:03.644Z,24.19
2019-05-23T17:13:43.748Z,24.15
2019-05-23T17:15:23.129Z,24.11
2019-05-23T17:17:05.337Z,24.03
2019-05-23T17:18:45.322Z,24
2019-05-23T17:20:24.751Z,23.94
2019-05-23T17:22:05.415Z,23.88
2019-05-23T17:23:45.024Z,23.84
2019-05-23T17:25:24.516Z,23.85
2019-05-23T17:27:08.746Z,23.85
2019-05-23T17:28:48.338Z,23.87
2019-05-23T17:30:27.893Z,23.81
2019-05-23T17:32:07.494Z,23.7
2019-05-23T17:33:47.033Z,23.51
2019-05-23T17:35:26.646Z,23.37
2019-05-23T17:37:06.074Z,23.34
2019-05-23T17:38:45.496Z,23.32
2019-05-23T17:40:25.575Z,23.27
2019-05-23T17:42:05.430Z,23.29
2019-05-23T17:43:46.178Z,23.3
2019-05-23T17:45:25.762Z,23.27
2019-05-23T17:47:05.229Z,23.26
2019-05-23T17:48:44.820Z,23.2
2019-05-23T17:50:24.304Z,23.18
2019-05-23T17:52:03.870Z,23.13
2019-05-23T17:53:43.496Z,23.05
2019-05-23T17:55:23.071Z,22.98
2019-05-23T17:57:02.562Z,22.85
2019-05-23T17:58:42.076Z,22.75
2019-05-23T18:00:21.806Z,22.7
2019-05-23T18:02:01.322Z,22.61
2019-05-23T18:03:40.971Z,22.58
2019-05-23T18:05:22.726Z,22.51
2019-05-23T18:07:02.248Z,22.48
2019-05-23T18:08:41.925Z,22.36
2019-05-23T18:10:21.478Z,22.27
2019-05-23T18:12:28.496Z,22.19
2019-05-23T18:14:08.068Z,22.12
2019-05-23T18:15:47.622Z,22.05
2019-05-23T18:17:27.133Z,21.92
2019-05-23T18:19:06.720Z,21.82
2019-05-23T18:20:46.222Z,21.75
2019-05-23T18:22:25.689Z,21.61
2019-05-23T18:24:05.320Z,21.57
2019-05-23T18:25:45.312Z,21.47
2019-05-23T18:27:24.802Z,21.4
2019-05-23T18:29:04.471Z,21.31
2019-05-23T18:30:44.272Z,21.2
2019-05-23T18:32:24.151Z,21.14
2019-05-23T18:34:03.163Z,21.08
2019-05-23T18:35:42.738Z,21.06
2019-05-23T18:37:22.310Z,21.02
2019-05-23T18:39:02.253Z,20.95
2019-05-23T18:40:42.087Z,20.9
2019-05-23T18:42:48.364Z,20.83
2019-05-23T18:44:27.933Z,20.74
2019-05-23T18:46:07.507Z,20.65
2019-05-23T18:47:47.354Z,20.61
2019-05-23T18:49:26.941Z,20.51
2019-05-23T18:51:06.502Z,20.44
2019-05-23T18:52:46.147Z,20.35
2019-05-23T18:54:33.544Z,20.31
2019-05-23T18:56:13.043Z,20.16
2019-05-23T18:57:52.638Z,20.07
2019-05-23T18:59:32.258Z,20.05
2019-05-23T19:01:11.787Z,19.99
2019-05-23T19:02:51.440Z,19.95
2019-05-23T19:04:30.995Z,19.9
2019-05-23T19:06:10.510Z,19.79
2019-05-23T19:07:50.086Z,19.72
2019-05-23T19:09:29.600Z,19.61
2019-05-23T19:11:19.877Z,19.55
2019-05-23T19:13:00.087Z,19.45
2019-05-23T19:14:39.006Z,19.38
2019-05-23T19:16:18.554Z,19.33
2019-05-23T19:17:58.052Z,19.23
2019-05-23T19:19:37.598Z,19.18
2019-05-23T19:21:16.495Z,19.07
2019-05-23T19:22:55.978Z,19.01
2019-05-23T19:24:35.541Z,18.98
2019-05-23T19:26:15.052Z,18.96
2019-05-23T19:27:54.839Z,18.91
2019-05-23T19:29:34.510Z,18.87
2019-05-23T19:31:14.148Z,18.8
2019-05-23T19:32:53.760Z,18.73
2019-05-23T19:34:33.491Z,18.65
2019-05-23T19:36:13.253Z,18.61
2019-05-23T19:37:52.971Z,18.55
2019-05-23T19:39:32.385Z,18.49
2019-05-23T19:41:12.296Z,18.4
2019-05-23T19:42:51.926Z,18.33
2019-05-23T19:44:31.757Z,18.27
2019-05-23T19:46:11.552Z,18.2
2019-05-23T19:47:53.202Z,18.13
2019-05-23T19:49:32.595Z,18.07
2019-05-23T19:51:12.010Z,18.02
2019-05-23T19:52:51.485Z,19.18
2019-05-23T19:54:30.979Z,18.03
2019-05-23T19:56:10.613Z,17.93
2019-05-23T19:57:50.155Z,17.85
2019-05-23T19:59:29.704Z,17.85
2019-05-23T20:01:09.234Z,17.82
2019-05-23T20:02:48.667Z,17.78
2019-05-23T20:04:31.046Z,17.77
2019-05-23T20:06:10.885Z,17.72
2019-05-23T20:07:50.409Z,17.66
2019-05-23T20:09:30.012Z,17.64
2019-05-23T20:11:09.679Z,17.59
2019-05-23T20:12:49.359Z,17.54
2019-05-23T20:14:28.938Z,17.48
2019-05-23T20:16:08.396Z,18.66
2019-05-23T20:17:51.563Z,17.48
2019-05-23T20:19:31.714Z,17.35
2019-05-23T20:21:11.228Z,18.51
2019-05-23T20:22:50.678Z,17.31
2019-05-23T20:24:30.075Z,18.42
2019-05-23T20:26:09.595Z,17.22
2019-05-23T20:27:49.075Z,18.34
2019-05-23T20:29:28.814Z,17.14
2019-05-23T20:31:08.269Z,18.26
2019-05-23T20:32:47.740Z,17.08
2019-05-23T20:34:27.261Z,18.19
2019-05-23T20:36:06.811Z,17.01
2019-05-23T20:37:50.366Z,18.11
2019-05-23T20:39:29.856Z,16.94
2019-05-23T20:41:09.271Z,18.06
2019-05-23T20:42:48.755Z,16.89
2019-05-23T20:44:28.206Z,17.99
2019-05-23T20:46:07.662Z,16.8
2019-05-23T20:47:47.297Z,17.91
2019-05-23T20:49:27.407Z,16.72
2019-05-23T20:51:07.012Z,17.83
2019-05-23T20:52:46.560Z,16.61
2019-05-23T20:54:26.046Z,17.73
2019-05-23T20:56:08.460Z,16.52
2019-05-23T20:57:47.919Z,17.64
2019-05-23T20:59:27.447Z,17.68
2019-05-23T21:01:06.929Z,17.65
2019-05-23T21:02:46.477Z,17.59
2019-05-23T21:04:26.065Z,17.52
2019-05-23T21:06:06.621Z,17.45
2019-05-23T21:07:46.812Z,17.39
2019-05-23T21:09:26.362Z,17.36
2019-05-23T21:11:05.757Z,17.33
2019-05-23T21:12:45.247Z,17.31
2019-05-23T21:14:24.638Z,17.26
2019-05-23T21:16:04.182Z,17.25
2019-05-23T21:17:43.725Z,17.22
2019-05-23T21:19:23.300Z,17.16
2019-05-23T21:21:02.844Z,17.09
2019-05-23T21:22:42.323Z,17.02
2019-05-23T21:24:21.814Z,16.96
2019-05-23T21:26:01.251Z,16.9
2019-05-23T21:27:40.795Z,16.85
2019-05-23T21:29:20.297Z,16.79
2019-05-23T21:30:59.722Z,16.74
2019-05-23T21:32:39.352Z,16.69
2019-05-23T21:34:21.989Z,16.65
2019-05-23T21:36:02.128Z,16.6
2019-05-23T21:37:42.131Z,16.57
2019-05-23T21:39:21.694Z,16.52
2019-05-23T21:41:03.294Z,16.49
2019-05-23T21:42:47.547Z,16.48
2019-05-23T21:44:27.669Z,16.46
2019-05-23T21:46:07.333Z,16.43
2019-05-23T21:47:47.754Z,16.41
2019-05-23T21:49:28.052Z,16.41
2019-05-23T21:51:07.630Z,16.37
2019-05-23T21:52:46.852Z,16.36
2019-05-23T21:54:27.394Z,16.92
2019-05-23T21:56:06.990Z,16.29
2019-05-23T21:57:46.830Z,16.22
2019-05-23T21:59:26.267Z,16.26
2019-05-23T22:01:05.873Z,16.27
2019-05-23T22:02:45.487Z,16.3
2019-05-23T22:04:25.423Z,16.28
2019-05-23T22:06:05.295Z,16.3
2019-05-23T22:07:45.267Z,16.28
2019-05-23T22:09:25.213Z,16.3
2019-05-23T22:11:05.148Z,16.26
2019-05-23T22:12:44.990Z,16.27
2019-05-23T22:14:40.191Z,16.26
2019-05-23T22:16:20.058Z,16.2
2019-05-23T22:17:59.571Z,16.18
2019-05-23T22:19:39.209Z,16.12
2019-05-23T22:21:18.710Z,16.12
2019-05-23T22:22:58.458Z,16.1
2019-05-23T22:24:37.851Z,16.05
2019-05-23T22:26:17.246Z,16.02
2019-05-23T22:27:56.818Z,16
2019-05-23T22:29:36.380Z,15.91
2019-05-23T22:31:15.220Z,15.86
2019-05-23T22:32:54.613Z,15.81
2019-05-23T22:34:34.160Z,15.82
2019-05-23T22:36:13.653Z,15.84
2019-05-23T22:37:53.058Z,15.86
2019-05-23T22:39:32.539Z,15.84
2019-05-23T22:41:12.034Z,15.8
2019-05-23T22:42:51.414Z,15.81
2019-05-23T22:44:30.841Z,15.76
2019-05-23T22:46:10.390Z,15.73
2019-05-23T22:47:49.919Z,15.71
2019-05-23T22:49:29.494Z,15.66
2019-05-23T22:51:08.959Z,15.61
2019-05-23T22:52:48.474Z,15.59
2019-05-23T22:54:27.993Z,15.58
2019-05-23T22:56:07.441Z,15.57
2019-05-23T22:57:46.839Z,15.55
2019-05-23T22:59:26.250Z,15.56
2019-05-23T23:01:05.780Z,15.54
2019-05-23T23:02:45.993Z,15.52
2019-05-23T23:04:28.479Z,16.1
2019-05-23T23:06:08.001Z,15.46
2019-05-23T23:07:47.407Z,15.45
2019-05-23T23:09:26.845Z,15.42
2019-05-23T23:11:06.237Z,15.39
2019-05-23T23:12:45.685Z,15.38
2019-05-23T23:14:25.115Z,15.4
2019-05-23T23:16:04.580Z,15.41
2019-05-23T23:17:44.103Z,15.43
2019-05-23T23:19:23.539Z,15.45
2019-05-23T23:21:03.005Z,15.43
2019-05-23T23:22:42.420Z,15.45
2019-05-23T23:24:21.854Z,15.47
2019-05-23T23:26:01.609Z,15.46
2019-05-23T23:27:41.080Z,15.45
2019-05-23T23:29:20.491Z,15.45
2019-05-23T23:30:59.996Z,15.46
2019-05-23T23:32:39.490Z,15.49
2019-05-23T23:34:18.882Z,15.49
2019-05-23T23:35:58.416Z,15.47
2019-05-23T23:37:37.846Z,15.48
2019-05-23T23:39:17.168Z,15.47
2019-05-23T23:40:56.676Z,14.23
2019-05-23T23:42:36.128Z,15.33
2019-05-23T23:44:15.443Z,15.36
2019-05-23T23:45:55.030Z,15.41
2019-05-23T23:47:34.560Z,15.43
2019-05-23T23:49:14.071Z,15.45
2019-05-23T23:50:53.543Z,15.48
2019-05-23T23:52:32.989Z,14.24
2019-05-23T23:54:12.331Z,15.33
2019-05-23T23:55:51.711Z,15.4
2019-05-23T23:57:31.099Z,15.44
2019-05-23T23:59:10.584Z,15.48
